EDW9TG LIME-LFPO
Flight info
| Callsign | EDW9TG |
|---|---|
| Flight time | 1h 0m |
| Altitude | 32000 |
| Route | PEPAG DCT CANNE DCT PUNSA DCT RLP |
| Aircraft | A320/M-SDE3FGHIRWY/LB1 |
Departure
| Time | 2026-04-30 18:20 |
|---|---|
| Airport | Il Caravaggio International Airport (LIME) |
Arrival
| Time | 2026-04-30 19:20 |
|---|---|
| Airport | Paris-Orly Airport (LFPO) |
| Time | Latitude | Longitude | Altitude | Speed | Heading |
|---|---|---|---|---|---|
| 2026-04-30 18:00 | 45.66634 | 9.70177 | 783 ft | 0 kts | 193° |
| 2026-04-30 18:13 | 45.66651 | 9.70182 | 782 ft | 3 kts | 190° |
| 2026-04-30 18:13 | 45.66704 | 9.70183 | 782 ft | 3 kts | 144° |
| 2026-04-30 18:14 | 45.66713 | 9.70169 | 782 ft | 0 kts | 105° |
| 2026-04-30 18:15 | 45.66668 | 9.70400 | 780 ft | 30 kts | 103° |
| 2026-04-30 18:16 | 45.66528 | 9.71150 | 774 ft | 45 kts | 108° |
| 2026-04-30 18:16 | 45.66470 | 9.71887 | 767 ft | 32 kts | 98° |
| 2026-04-30 18:17 | 45.66412 | 9.72201 | 764 ft | 33 kts | 105° |
| 2026-04-30 18:17 | 45.66392 | 9.72453 | 763 ft | 15 kts | 51° |
| 2026-04-30 18:17 | 45.66469 | 9.72393 | 763 ft | 1 kts | 285° |
| 2026-04-30 18:18 | 45.66469 | 9.72390 | 763 ft | 0 kts | 284° |
| 2026-04-30 18:19 | 45.66470 | 9.72386 | 762 ft | 1 kts | 284° |
| 2026-04-30 18:19 | 45.66508 | 9.72173 | 765 ft | 64 kts | 285° |
| 2026-04-30 18:19 | 45.66697 | 9.71164 | 772 ft | 143 kts | 284° |
| 2026-04-30 18:19 | 45.67005 | 9.69609 | 1250 ft | 164 kts | 284° |
| 2026-04-30 18:20 | 45.67135 | 9.68002 | 2138 ft | 163 kts | 256° |
| 2026-04-30 18:20 | 45.66746 | 9.66471 | 2559 ft | 174 kts | 237° |
| 2026-04-30 18:20 | 45.65921 | 9.65130 | 2971 ft | 185 kts | 223° |
| 2026-04-30 18:20 | 45.64979 | 9.63833 | 3504 ft | 194 kts | 216° |
| 2026-04-30 18:21 | 45.63689 | 9.63148 | 3904 ft | 205 kts | 178° |
| 2026-04-30 18:21 | 45.62330 | 9.63708 | 4566 ft | 208 kts | 143° |
| 2026-04-30 18:21 | 45.61474 | 9.65351 | 5225 ft | 211 kts | 104° |
| 2026-04-30 18:21 | 45.61508 | 9.67422 | 5881 ft | 214 kts | 68° |
| 2026-04-30 18:22 | 45.62178 | 9.69339 | 6591 ft | 217 kts | 62° |
| 2026-04-30 18:22 | 45.64165 | 9.72476 | 7960 ft | 221 kts | 19° |
| 2026-04-30 18:22 | 45.65690 | 9.72695 | 8581 ft | 229 kts | 351° |
| 2026-04-30 18:23 | 45.67177 | 9.71658 | 8877 ft | 254 kts | 316° |
| 2026-04-30 18:23 | 45.68241 | 9.69509 | 9223 ft | 277 kts | 302° |
| 2026-04-30 18:23 | 45.69251 | 9.67090 | 9869 ft | 287 kts | 302° |
| 2026-04-30 18:23 | 45.70274 | 9.64610 | 10239 ft | 292 kts | 301° |
| 2026-04-30 18:24 | 45.72488 | 9.59257 | 10809 ft | 335 kts | 302° |
| 2026-04-30 18:24 | 45.73701 | 9.56347 | 11346 ft | 345 kts | 302° |
| 2026-04-30 18:24 | 45.74943 | 9.53383 | 12060 ft | 349 kts | 303° |
| 2026-04-30 18:25 | 45.76325 | 9.50512 | 12785 ft | 352 kts | 308° |
| 2026-04-30 18:25 | 45.79241 | 9.44803 | 14195 ft | 359 kts | 309° |
| 2026-04-30 18:25 | 45.80736 | 9.41909 | 14824 ft | 362 kts | 309° |
| 2026-04-30 18:26 | 45.83745 | 9.36059 | 16123 ft | 367 kts | 309° |
| 2026-04-30 18:26 | 45.85258 | 9.33096 | 16755 ft | 370 kts | 309° |
| 2026-04-30 18:26 | 45.86781 | 9.30105 | 17359 ft | 373 kts | 309° |
| 2026-04-30 18:27 | 45.89859 | 9.24036 | 18541 ft | 379 kts | 309° |
| 2026-04-30 18:27 | 45.91414 | 9.20965 | 19042 ft | 382 kts | 309° |
| 2026-04-30 18:28 | 45.94560 | 9.14744 | 20117 ft | 388 kts | 309° |
| 2026-04-30 18:28 | 45.96153 | 9.11590 | 20603 ft | 391 kts | 309° |
| 2026-04-30 18:28 | 45.99727 | 9.05783 | 21634 ft | 391 kts | 324° |
| 2026-04-30 18:29 | 46.01917 | 9.03463 | 22142 ft | 393 kts | 327° |
| 2026-04-30 18:29 | 46.08647 | 8.96493 | 23534 ft | 402 kts | 327° |
| 2026-04-30 18:30 | 46.12321 | 8.92240 | 24218 ft | 411 kts | 315° |
| 2026-04-30 18:30 | 46.15166 | 8.84971 | 25001 ft | 428 kts | 289° |
| 2026-04-30 18:31 | 46.15678 | 8.80720 | 25366 ft | 436 kts | 276° |
| 2026-04-30 18:31 | 46.15071 | 8.71929 | 26067 ft | 444 kts | 264° |
| 2026-04-30 18:32 | 46.14172 | 8.63079 | 26824 ft | 448 kts | 264° |
| 2026-04-30 18:32 | 46.13714 | 8.58625 | 27195 ft | 450 kts | 264° |
| 2026-04-30 18:32 | 46.12792 | 8.49679 | 27892 ft | 453 kts | 264° |
| 2026-04-30 18:33 | 46.12322 | 8.45168 | 28237 ft | 455 kts | 264° |
| 2026-04-30 18:33 | 46.11380 | 8.36124 | 28913 ft | 458 kts | 263° |
| 2026-04-30 18:33 | 46.10914 | 8.31638 | 29231 ft | 460 kts | 264° |
| 2026-04-30 18:34 | 46.10441 | 8.27077 | 29526 ft | 461 kts | 263° |
| 2026-04-30 18:34 | 46.09487 | 8.17903 | 30100 ft | 464 kts | 263° |
| 2026-04-30 18:34 | 46.09073 | 8.13278 | 30347 ft | 464 kts | 269° |
| 2026-04-30 18:35 | 46.09149 | 8.08651 | 30556 ft | 462 kts | 279° |
| 2026-04-30 18:35 | 46.09789 | 8.04148 | 30839 ft | 457 kts | 289° |
| 2026-04-30 18:35 | 46.10959 | 7.99918 | 31124 ft | 453 kts | 300° |
| 2026-04-30 18:36 | 46.14674 | 7.92732 | 31661 ft | 446 kts | 317° |
| 2026-04-30 18:36 | 46.16871 | 7.89581 | 31966 ft | 445 kts | 317° |
| 2026-04-30 18:36 | 46.21234 | 7.83257 | 32224 ft | 441 kts | 317° |
| 2026-04-30 18:37 | 46.23388 | 7.80117 | 32211 ft | 440 kts | 317° |
| 2026-04-30 18:37 | 46.27688 | 7.73843 | 32194 ft | 439 kts | 317° |
| 2026-04-30 18:38 | 46.31991 | 7.67564 | 32174 ft | 440 kts | 317° |
| 2026-04-30 18:38 | 46.36299 | 7.61256 | 32174 ft | 441 kts | 317° |
| 2026-04-30 18:39 | 46.40615 | 7.54932 | 32171 ft | 442 kts | 317° |
| 2026-04-30 18:39 | 46.44933 | 7.48577 | 32156 ft | 442 kts | 317° |
| 2026-04-30 18:40 | 46.49249 | 7.42213 | 32163 ft | 443 kts | 317° |
| 2026-04-30 18:40 | 46.53577 | 7.35836 | 32163 ft | 443 kts | 316° |
| 2026-04-30 18:41 | 46.57906 | 7.29436 | 32195 ft | 448 kts | 316° |
| 2026-04-30 18:41 | 46.62328 | 7.22861 | 32198 ft | 460 kts | 316° |
| 2026-04-30 18:42 | 46.66819 | 7.16168 | 32207 ft | 463 kts | 316° |
| 2026-04-30 18:42 | 46.73580 | 7.06065 | 32216 ft | 465 kts | 316° |
| 2026-04-30 18:45 | 46.98450 | 6.68695 | 32219 ft | 469 kts | 316° |
| 2026-04-30 18:46 | 47.03004 | 6.61830 | 32217 ft | 470 kts | 316° |
| 2026-04-30 18:46 | 47.07565 | 6.54961 | 32214 ft | 470 kts | 316° |
| 2026-04-30 18:47 | 47.12135 | 6.48093 | 32204 ft | 471 kts | 316° |
| 2026-04-30 18:47 | 47.16722 | 6.41208 | 32197 ft | 471 kts | 316° |
| 2026-04-30 18:48 | 47.21306 | 6.34332 | 32185 ft | 471 kts | 316° |
| 2026-04-30 18:48 | 47.25896 | 6.27450 | 32175 ft | 471 kts | 316° |
| 2026-04-30 18:49 | 47.30493 | 6.20551 | 32171 ft | 472 kts | 316° |
| 2026-04-30 18:49 | 47.35099 | 6.13645 | 32168 ft | 473 kts | 316° |
| 2026-04-30 18:50 | 47.39713 | 6.06724 | 32166 ft | 473 kts | 316° |
| 2026-04-30 18:50 | 47.44330 | 5.99795 | 32164 ft | 473 kts | 316° |
| 2026-04-30 18:51 | 47.48950 | 5.92857 | 32168 ft | 474 kts | 316° |
| 2026-04-30 18:51 | 47.53575 | 5.85907 | 32168 ft | 474 kts | 316° |
| 2026-04-30 18:52 | 47.58173 | 5.78997 | 32166 ft | 474 kts | 316° |
| 2026-04-30 18:52 | 47.60327 | 5.75297 | 32166 ft | 476 kts | 304° |
| 2026-04-30 18:52 | 47.61827 | 5.70926 | 32171 ft | 478 kts | 289° |
| 2026-04-30 18:53 | 47.63547 | 5.61386 | 32163 ft | 480 kts | 284° |
| 2026-04-30 18:53 | 47.65177 | 5.51782 | 32170 ft | 480 kts | 284° |
| 2026-04-30 18:54 | 47.66801 | 5.42173 | 32167 ft | 481 kts | 284° |
| 2026-04-30 18:54 | 47.68428 | 5.32548 | 32169 ft | 481 kts | 284° |
| 2026-04-30 18:55 | 47.70046 | 5.22914 | 32171 ft | 481 kts | 284° |
| 2026-04-30 18:55 | 47.72471 | 5.08449 | 32166 ft | 482 kts | 284° |
| 2026-04-30 18:56 | 47.74870 | 4.93938 | 32168 ft | 482 kts | 284° |
| 2026-04-30 18:57 | 47.77261 | 4.79421 | 32169 ft | 482 kts | 283° |
| 2026-04-30 18:57 | 47.78844 | 4.69718 | 32167 ft | 483 kts | 283° |
| 2026-04-30 18:58 | 47.80414 | 4.60024 | 31905 ft | 480 kts | 283° |
| 2026-04-30 18:58 | 47.81183 | 4.55257 | 30929 ft | 481 kts | 283° |
| 2026-04-30 18:58 | 47.81961 | 4.50417 | 29843 ft | 483 kts | 283° |
| 2026-04-30 18:59 | 47.83526 | 4.40665 | 27297 ft | 488 kts | 283° |
| 2026-04-30 19:00 | 47.85913 | 4.25742 | 23204 ft | 500 kts | 283° |
| 2026-04-30 19:00 | 47.86709 | 4.20701 | 22175 ft | 495 kts | 283° |
| 2026-04-30 19:00 | 47.88247 | 4.10897 | 20579 ft | 479 kts | 283° |
| 2026-04-30 19:01 | 47.89746 | 4.01332 | 19342 ft | 471 kts | 283° |
| 2026-04-30 19:01 | 47.90484 | 3.96581 | 19145 ft | 471 kts | 283° |
| 2026-04-30 19:02 | 47.91959 | 3.87073 | 19146 ft | 471 kts | 283° |
| 2026-04-30 19:02 | 47.93438 | 3.77537 | 19148 ft | 471 kts | 283° |
| 2026-04-30 19:03 | 47.94901 | 3.68012 | 19151 ft | 471 kts | 282° |
| 2026-04-30 19:03 | 47.96613 | 3.58593 | 19129 ft | 470 kts | 294° |
| 2026-04-30 19:04 | 48.00348 | 3.50930 | 17783 ft | 457 kts | 315° |
| 2026-04-30 19:04 | 48.04781 | 3.44266 | 16231 ft | 447 kts | 315° |
| 2026-04-30 19:05 | 48.09133 | 3.37673 | 14792 ft | 437 kts | 315° |
| 2026-04-30 19:05 | 48.13307 | 3.31268 | 13466 ft | 428 kts | 314° |
| 2026-04-30 19:06 | 48.17454 | 3.24880 | 12834 ft | 427 kts | 315° |
| 2026-04-30 19:06 | 48.19518 | 3.21700 | 12500 ft | 424 kts | 314° |
| 2026-04-30 19:06 | 48.23613 | 3.15387 | 11846 ft | 420 kts | 314° |
| 2026-04-30 19:07 | 48.27673 | 3.09125 | 11202 ft | 416 kts | 314° |
| 2026-04-30 19:07 | 48.29538 | 3.05824 | 10879 ft | 414 kts | 302° |
| 2026-04-30 19:08 | 48.32023 | 2.98084 | 10267 ft | 409 kts | 294° |
| 2026-04-30 19:08 | 48.34361 | 2.90339 | 9612 ft | 404 kts | 294° |
| 2026-04-30 19:08 | 48.35517 | 2.86493 | 9272 ft | 402 kts | 294° |
| 2026-04-30 19:09 | 48.37799 | 2.78913 | 9059 ft | 399 kts | 294° |
| 2026-04-30 19:09 | 48.38943 | 2.75112 | 8760 ft | 398 kts | 293° |
| 2026-04-30 19:09 | 48.40081 | 2.71326 | 8493 ft | 396 kts | 293° |
| 2026-04-30 19:10 | 48.42336 | 2.63792 | 7994 ft | 393 kts | 292° |
| 2026-04-30 19:10 | 48.44569 | 2.56322 | 7502 ft | 389 kts | 293° |
| 2026-04-30 19:11 | 48.45679 | 2.52617 | 7256 ft | 383 kts | 293° |
| 2026-04-30 19:11 | 48.47764 | 2.45647 | 6778 ft | 347 kts | 292° |
| 2026-04-30 19:11 | 48.48730 | 2.42400 | 6538 ft | 333 kts | 292° |
| 2026-04-30 19:12 | 48.49658 | 2.39279 | 6309 ft | 319 kts | 292° |
| 2026-04-30 19:12 | 48.50545 | 2.36285 | 6127 ft | 306 kts | 292° |
| 2026-04-30 19:12 | 48.51394 | 2.33416 | 5951 ft | 293 kts | 291° |
| 2026-04-30 19:13 | 48.52986 | 2.28021 | 5605 ft | 270 kts | 291° |
| 2026-04-30 19:13 | 48.54468 | 2.22986 | 5202 ft | 257 kts | 291° |
| 2026-04-30 19:13 | 48.55189 | 2.20532 | 4909 ft | 254 kts | 291° |
| 2026-04-30 19:14 | 48.55899 | 2.18116 | 4611 ft | 250 kts | 291° |
| 2026-04-30 19:14 | 48.56363 | 2.16536 | 4414 ft | 247 kts | 291° |
| 2026-04-30 19:14 | 48.57056 | 2.14172 | 4111 ft | 244 kts | 292° |
| 2026-04-30 19:14 | 48.57949 | 2.11117 | 4000 ft | 239 kts | 292° |
| 2026-04-30 19:15 | 48.58620 | 2.08819 | 4004 ft | 240 kts | 292° |
| 2026-04-30 19:15 | 48.60500 | 2.05900 | 4008 ft | 239 kts | 347° |
| 2026-04-30 19:15 | 48.62122 | 2.05983 | 4003 ft | 234 kts | 25° |
| 2026-04-30 19:16 | 48.63363 | 2.07451 | 3854 ft | 226 kts | 60° |
| 2026-04-30 19:16 | 48.64128 | 2.09503 | 3591 ft | 223 kts | 66° |
| 2026-04-30 19:16 | 48.64816 | 2.11487 | 3325 ft | 222 kts | 65° |
| 2026-04-30 19:17 | 48.65539 | 2.13525 | 3038 ft | 219 kts | 66° |
| 2026-04-30 19:17 | 48.66967 | 2.17545 | 2462 ft | 215 kts | 66° |
| 2026-04-30 19:17 | 48.67672 | 2.19523 | 2171 ft | 209 kts | 66° |
| 2026-04-30 19:18 | 48.68750 | 2.22543 | 1760 ft | 182 kts | 66° |
| 2026-04-30 19:18 | 48.69500 | 2.24652 | 1440 ft | 160 kts | 66° |
| 2026-04-30 19:18 | 48.69999 | 2.26052 | 1225 ft | 143 kts | 66° |
| 2026-04-30 19:19 | 48.70454 | 2.27335 | 1030 ft | 135 kts | 64° |
| 2026-04-30 19:19 | 48.70894 | 2.28578 | 847 ft | 132 kts | 64° |
| 2026-04-30 19:19 | 48.71765 | 2.31028 | 479 ft | 132 kts | 63° |
| 2026-04-30 19:20 | 48.72197 | 2.32254 | 311 ft | 131 kts | 62° |
| 2026-04-30 19:20 | 48.72561 | 2.33287 | 293 ft | 85 kts | 62° |
| 2026-04-30 19:20 | 48.72790 | 2.34182 | 294 ft | 35 kts | 82° |
| 2026-04-30 19:21 | 48.72820 | 2.34531 | 297 ft | 32 kts | 83° |
| 2026-04-30 19:21 | 48.72879 | 2.35170 | 298 ft | 30 kts | 82° |
| 2026-04-30 19:22 | 48.73053 | 2.35647 | 294 ft | 26 kts | 67° |
| 2026-04-30 19:22 | 48.72986 | 2.35785 | 294 ft | 0 kts | 158° |